KMDS

Details ICAO KMDS
Name Madison Muni
Region United States
Timezone America/Chicago (UTC-5.0)
Plans Departing 2
Arriving 6
Stats Elevation 1,716 ft / 523 m (AMSL)
Location 44.016218° -97.085043°
Runways 2
Magnetic Variation 3.257° E
Sunrise 2018-05-25 10:54:22 UTC / 2018-05-25 05:54:22 Local
Sunset 2018-05-26 01:59:07 UTC / 2018-05-25 20:59:07 Local
Advertisement - Login to hide

Runways

ID Width Length Bearing (true) Bearing (mag) Surface Threshold Offset Overrun Length
03 200 ft / 61 m 2,429 ft / 740 m 34.47° 31.21° Grass 0 ft / 0 m 0 ft / 0 m
15 75 ft / 23 m 5,003 ft / 1,525 m 153.83° 150.57° Concrete 0 ft / 0 m 0 ft / 0 m
21 200 ft / 61 m 2,429 ft / 740 m 214.48° 211.22° Grass 0 ft / 0 m 0 ft / 0 m
33 75 ft / 23 m 5,003 ft / 1,525 m 333.83° 330.57° Concrete 0 ft / 0 m 0 ft / 0 m

Map

Weather


0- 5 10 15 20 25 30 35+ Temperature / ° C

Clouds and Precipitation
Forecast for 2018-05-26 00:00 UTC. Updated 2 hours ago

Ground ~20,000 ft ~40,000 ft Winds

METAR

KMDS 260115Z AUTO 26005KT 10SM CLR 27/15 A2974 RMK AO2

TAF

Not found

Frequencies

Unicom 122.80 MHz CTAF/UNICOM
Warning: Do not use this data for real-world aviation or navigation. No guarantee of current accuracy is given.